createdAt,value
2023-04-16T00:00:46.377Z,8.95
2023-04-16T00:03:13.213Z,6.65
2023-04-16T00:05:40.091Z,5.93
2023-04-16T00:08:07.099Z,6.07
2023-04-16T00:10:35.005Z,6.43
2023-04-16T00:13:01.657Z,5.70
2023-04-16T00:15:28.288Z,6.07
2023-04-16T00:17:54.911Z,6.00
2023-04-16T00:20:21.565Z,6.68
2023-04-16T00:22:48.373Z,7.05
2023-04-16T00:25:15.049Z,7.97
2023-04-16T00:27:41.675Z,6.88
2023-04-16T00:30:08.654Z,6.15
2023-04-16T00:32:35.696Z,7.18
2023-04-16T00:35:02.507Z,5.47
2023-04-16T00:37:30.360Z,5.07
2023-04-16T00:39:56.922Z,5.07
2023-04-16T00:42:23.588Z,6.43
2023-04-16T00:44:50.210Z,7.40
2023-04-16T00:47:16.892Z,5.88
2023-04-16T00:49:43.520Z,5.30
2023-04-16T00:52:11.904Z,4.70
2023-04-16T00:54:39.519Z,4.93
2023-04-16T00:57:06.470Z,5.47
2023-04-16T00:59:33.128Z,5.53
2023-04-16T01:01:59.732Z,4.53
2023-04-16T01:04:26.570Z,4.57
2023-04-16T01:06:53.573Z,4.63
2023-04-16T01:09:20.268Z,5.05
2023-04-16T01:11:46.878Z,4.20
2023-04-16T01:14:13.489Z,4.80
2023-04-16T01:16:40.075Z,8.20
2023-04-16T01:19:06.757Z,5.50
2023-04-16T01:21:33.328Z,4.93
2023-04-16T01:24:04.634Z,4.60
2023-04-16T01:26:31.638Z,5.35
2023-04-16T01:28:59.473Z,7.15
2023-04-16T01:31:27.171Z,7.50
2023-04-16T01:34:06.799Z,6.45
2023-04-16T01:36:34.777Z,6.13
2023-04-16T01:39:01.385Z,6.15
2023-04-16T01:41:27.993Z,7.60
2023-04-16T01:43:54.576Z,9.45
2023-04-16T01:46:27.662Z,8.32
2023-04-16T01:51:22.097Z,6.18
2023-04-16T01:53:49.893Z,6.15
2023-04-16T01:56:16.902Z,7.47
2023-04-16T01:58:43.640Z,6.30
2023-04-16T02:01:10.365Z,6.07
2023-04-16T02:03:38.401Z,6.15
2023-04-16T02:06:05.548Z,5.60
2023-04-16T02:08:32.597Z,4.65
2023-04-16T02:10:59.615Z,5.43
2023-04-16T02:13:26.566Z,4.95
2023-04-16T02:15:53.396Z,5.18
2023-04-16T02:18:43.111Z,5.55
2023-04-16T02:21:11.115Z,5.75
2023-04-16T02:23:41.068Z,6.55
2023-04-16T02:26:07.797Z,7.75
2023-04-16T02:28:34.453Z,5.45
2023-04-16T02:31:01.302Z,7.25
2023-04-16T02:33:33.191Z,5.13
2023-04-16T02:36:03.022Z,5.95
2023-04-16T02:38:29.740Z,6.97
2023-04-16T02:40:56.388Z,7.85
2023-04-16T02:43:23.030Z,12.18
2023-04-16T02:45:49.680Z,12.23
2023-04-16T02:48:16.389Z,14.00
2023-04-16T02:50:42.990Z,10.93
2023-04-16T02:53:10.723Z,9.38
2023-04-16T02:55:37.366Z,7.88
2023-04-16T02:58:03.991Z,6.57
2023-04-16T03:00:30.646Z,4.47
2023-04-16T03:02:57.534Z,5.03
2023-04-16T03:05:24.528Z,7.95
2023-04-16T03:07:56.457Z,6.13
2023-04-16T03:10:24.060Z,4.63
2023-04-16T03:12:50.929Z,5.70
2023-04-16T03:15:17.715Z,5.60
2023-04-16T03:17:44.537Z,5.03
2023-04-16T03:20:11.541Z,8.18
2023-04-16T03:22:40.974Z,5.60
2023-04-16T03:25:08.159Z,5.28
2023-04-16T03:27:35.405Z,4.35
2023-04-16T03:30:02.373Z,5.85
2023-04-16T03:32:30.329Z,4.72
2023-04-16T03:34:57.239Z,5.63
2023-04-16T03:37:24.242Z,5.32
2023-04-16T03:39:51.200Z,4.38
2023-04-16T03:42:17.856Z,4.55
2023-04-16T03:44:44.622Z,6.13
2023-04-16T03:47:11.692Z,7.15
2023-04-16T03:49:38.300Z,5.60
2023-04-16T03:52:06.044Z,4.63
2023-04-16T03:54:32.680Z,5.70
2023-04-16T03:57:11.341Z,5.50
2023-04-16T03:59:38.318Z,5.80
2023-04-16T04:02:05.054Z,6.90
2023-04-16T04:04:32.022Z,7.10
2023-04-16T04:06:58.714Z,4.82
2023-04-16T04:09:26.892Z,5.78
2023-04-16T04:11:53.594Z,5.00
2023-04-16T04:14:20.167Z,4.80
2023-04-16T04:16:46.829Z,5.35
2023-04-16T04:19:14.603Z,5.45
2023-04-16T04:21:41.263Z,5.50
2023-04-16T04:24:08.818Z,5.40
2023-04-16T04:26:35.472Z,5.35
2023-04-16T04:29:02.109Z,8.48
2023-04-16T04:31:30.360Z,8.88
2023-04-16T04:33:56.950Z,7.55
2023-04-16T04:36:23.899Z,9.63
2023-04-16T04:38:51.272Z,8.07
2023-04-16T04:41:19.618Z,8.05
2023-04-16T04:43:47.304Z,9.15
2023-04-16T04:46:13.996Z,7.97
2023-04-16T04:48:41.170Z,8.45
2023-04-16T04:51:07.914Z,7.97
2023-04-16T04:53:34.716Z,7.35
2023-04-16T04:56:09.275Z,7.22
2023-04-16T04:58:38.863Z,9.52
2023-04-16T05:01:05.950Z,9.57
2023-04-16T05:03:32.716Z,8.68
2023-04-16T05:05:59.728Z,9.93
2023-04-16T05:08:26.321Z,9.07
2023-04-16T05:10:52.956Z,9.25
2023-04-16T05:13:19.619Z,10.75
2023-04-16T05:15:46.359Z,14.68
2023-04-16T05:18:12.910Z,15.40
2023-04-16T05:20:39.485Z,13.82
2023-04-16T05:23:06.100Z,14.43
2023-04-16T05:25:32.718Z,9.88
2023-04-16T05:27:59.288Z,9.55
2023-04-16T05:30:25.895Z,11.48
2023-04-16T05:32:52.739Z,10.18
2023-04-16T05:35:19.384Z,13.38
2023-04-16T05:37:45.965Z,14.68
2023-04-16T05:40:13.957Z,11.05
2023-04-16T05:42:40.930Z,8.55
2023-04-16T05:45:08.052Z,7.00
2023-04-16T05:47:34.666Z,8.45
2023-04-16T05:50:01.270Z,7.75
2023-04-16T05:52:27.920Z,11.70
2023-04-16T05:54:54.525Z,11.32
2023-04-16T05:57:21.270Z,10.63
2023-04-16T05:59:47.860Z,10.15
2023-04-16T06:02:14.687Z,9.93
2023-04-16T06:04:41.378Z,10.13
2023-04-16T06:07:08.015Z,9.70
2023-04-16T06:09:34.603Z,9.80
2023-04-16T06:12:01.353Z,10.35
2023-04-16T06:14:27.959Z,10.07
2023-04-16T06:16:54.744Z,7.43
2023-04-16T06:19:21.335Z,9.25
2023-04-16T06:21:47.987Z,7.75
2023-04-16T06:24:14.655Z,6.53
2023-04-16T06:26:41.228Z,8.82
2023-04-16T06:29:08.116Z,8.43
2023-04-16T06:31:34.848Z,8.32
2023-04-16T06:34:01.454Z,7.97
2023-04-16T06:36:29.225Z,7.00
2023-04-16T06:38:56.694Z,7.90
2023-04-16T06:41:25.723Z,8.25
2023-04-16T06:43:52.556Z,9.45
2023-04-16T06:46:19.221Z,10.25
2023-04-16T06:48:45.950Z,14.20
2023-04-16T06:51:13.294Z,13.20
2023-04-16T06:53:40.037Z,9.25
2023-04-16T06:56:07.225Z,6.53
2023-04-16T06:58:34.029Z,6.35
2023-04-16T07:01:01.165Z,5.50
2023-04-16T07:03:27.946Z,5.68
2023-04-16T07:05:54.710Z,6.50
2023-04-16T07:08:21.303Z,5.57
2023-04-16T07:10:47.903Z,7.75
2023-04-16T07:13:14.968Z,4.75
2023-04-16T07:15:41.546Z,4.38
2023-04-16T07:18:08.444Z,4.82
2023-04-16T07:20:36.213Z,4.40
2023-04-16T07:23:02.852Z,4.72
2023-04-16T07:25:29.838Z,6.15
2023-04-16T07:27:56.922Z,5.80
2023-04-16T07:30:23.599Z,6.57
2023-04-16T07:32:51.640Z,7.35
2023-04-16T07:35:18.281Z,5.70
2023-04-16T07:37:45.046Z,7.00
2023-04-16T07:40:12.025Z,5.97
2023-04-16T07:42:38.643Z,8.18
2023-04-16T07:45:05.742Z,6.32
2023-04-16T07:47:32.383Z,8.02
2023-04-16T07:49:58.996Z,5.45
2023-04-16T07:52:26.680Z,5.95
2023-04-16T07:54:53.605Z,5.65
2023-04-16T07:57:21.313Z,6.72
2023-04-16T07:59:47.970Z,5.72
2023-04-16T08:02:16.654Z,5.65
2023-04-16T08:04:45.553Z,5.93
2023-04-16T08:07:12.277Z,6.78
2023-04-16T08:09:49.242Z,5.97
2023-04-16T08:12:17.324Z,5.57
2023-04-16T08:14:45.779Z,5.32
2023-04-16T08:17:13.188Z,3.92
2023-04-16T08:19:40.429Z,4.68
2023-04-16T08:22:07.312Z,3.75
2023-04-16T08:24:33.909Z,4.95
2023-04-16T08:27:15.191Z,3.97
2023-04-16T08:29:44.955Z,3.58
2023-04-16T08:32:11.714Z,4.80
2023-04-16T08:34:38.415Z,2.50
2023-04-16T08:37:05.612Z,6.20
2023-04-16T08:39:32.337Z,1.90
2023-04-16T08:42:00.206Z,1.90
2023-04-16T08:44:31.540Z,1.73
2023-04-16T08:46:59.155Z,1.80
2023-04-16T08:49:26.730Z,2.25
2023-04-16T08:51:57.057Z,2.00
2023-04-16T08:54:47.544Z,1.83
2023-04-16T08:57:31.721Z,3.08
2023-04-16T09:00:01.056Z,2.83
2023-04-16T09:02:29.379Z,2.10
2023-04-16T09:04:59.528Z,3.33
2023-04-16T09:07:29.637Z,2.08
2023-04-16T09:09:59.543Z,2.03
2023-04-16T09:12:26.350Z,2.50
2023-04-16T09:14:53.772Z,3.22
2023-04-16T09:17:21.100Z,1.88
2023-04-16T09:19:48.020Z,2.55
2023-04-16T09:22:14.698Z,2.50
2023-04-16T09:24:42.984Z,1.90
2023-04-16T09:27:09.922Z,1.95
2023-04-16T09:29:41.474Z,2.08
2023-04-16T09:32:10.503Z,3.38
2023-04-16T09:34:57.528Z,2.38
2023-04-16T09:37:26.138Z,2.45
2023-04-16T09:39:55.483Z,2.05
2023-04-16T09:42:25.220Z,2.17
2023-04-16T09:44:52.913Z,2.00
2023-04-16T09:47:20.015Z,1.45
2023-04-16T09:49:47.222Z,1.70
2023-04-16T09:52:15.761Z,3.75
2023-04-16T09:54:47.120Z,2.38
2023-04-16T09:57:14.665Z,1.70
2023-04-16T09:59:41.319Z,1.90
2023-04-16T10:02:15.823Z,1.85
2023-04-16T10:04:53.237Z,2.15
2023-04-16T10:07:20.964Z,4.38
2023-04-16T10:09:52.465Z,1.88
2023-04-16T10:12:19.489Z,2.67
2023-04-16T10:14:48.280Z,1.58
2023-04-16T10:17:16.900Z,1.48
2023-04-16T10:19:43.785Z,2.25
2023-04-16T10:22:11.332Z,2.53
2023-04-16T10:24:38.767Z,1.83
2023-04-16T10:27:05.411Z,1.98
2023-04-16T10:29:33.074Z,1.20
2023-04-16T10:32:01.198Z,1.30
2023-04-16T10:34:29.048Z,1.00
2023-04-16T10:36:55.991Z,1.13
2023-04-16T10:39:24.854Z,1.00
2023-04-16T10:42:07.473Z,1.20
2023-04-16T10:44:34.279Z,2.47
2023-04-16T10:47:01.137Z,1.20
2023-04-16T10:49:27.736Z,1.85
2023-04-16T10:51:54.326Z,0.80
2023-04-16T10:54:25.737Z,4.43
2023-04-16T10:56:53.814Z,1.35
2023-04-16T10:59:22.100Z,0.63
2023-04-16T11:01:54.035Z,1.48
2023-04-16T11:04:21.166Z,0.63
2023-04-16T11:07:21.570Z,0.77
2023-04-16T11:09:52.514Z,1.40
2023-04-16T11:12:23.680Z,0.50
2023-04-16T11:14:52.528Z,0.70
2023-04-16T11:17:21.053Z,0.93
2023-04-16T11:19:48.140Z,1.20
2023-04-16T11:22:17.608Z,1.20
2023-04-16T11:24:47.349Z,0.70
2023-04-16T11:27:15.210Z,0.60
2023-04-16T11:29:42.250Z,1.50
2023-04-16T11:32:08.947Z,0.98
2023-04-16T11:34:44.130Z,0.80
2023-04-16T11:37:10.964Z,0.40
2023-04-16T11:39:48.778Z,0.55
2023-04-16T11:42:21.265Z,0.80
2023-04-16T11:47:17.992Z,0.50
2023-04-16T11:49:44.747Z,1.60
2023-04-16T11:52:11.573Z,1.60
2023-04-16T11:54:38.561Z,0.95
2023-04-16T11:57:05.153Z,1.10
2023-04-16T11:59:31.981Z,2.65
2023-04-16T12:01:58.651Z,1.63
2023-04-16T12:04:27.273Z,0.50
2023-04-16T12:07:11.771Z,1.08
2023-04-16T12:09:41.049Z,0.85
2023-04-16T12:12:28.149Z,0.65
2023-04-16T12:14:56.807Z,0.68
2023-04-16T12:17:24.080Z,0.43
2023-04-16T12:20:00.189Z,1.20
2023-04-16T12:22:38.353Z,0.88
2023-04-16T12:25:06.084Z,0.80
2023-04-16T12:27:55.988Z,0.95
2023-04-16T12:30:24.971Z,0.50
2023-04-16T12:33:12.910Z,0.60
2023-04-16T12:35:41.924Z,0.50
2023-04-16T12:38:08.518Z,0.57
2023-04-16T12:40:36.134Z,0.57
2023-04-16T12:43:03.403Z,1.05
2023-04-16T12:45:30.924Z,0.85
2023-04-16T12:47:57.972Z,0.88
2023-04-16T12:50:24.650Z,0.40
2023-04-16T12:52:52.137Z,0.40
2023-04-16T12:55:19.482Z,0.80
2023-04-16T12:57:48.760Z,0.73
2023-04-16T13:00:16.784Z,0.50
2023-04-16T13:02:43.882Z,0.55
2023-04-16T13:05:10.562Z,0.50
2023-04-16T13:07:37.314Z,0.60
2023-04-16T13:10:05.415Z,0.40
2023-04-16T13:12:32.735Z,0.52
2023-04-16T13:14:59.380Z,0.45
2023-04-16T13:17:26.232Z,0.88
2023-04-16T13:19:53.308Z,0.40
2023-04-16T13:22:19.989Z,0.90
2023-04-16T13:24:46.716Z,0.50
2023-04-16T13:27:15.235Z,2.40
2023-04-16T13:29:41.935Z,0.47
2023-04-16T13:32:08.659Z,0.65
2023-04-16T13:34:35.879Z,1.08
2023-04-16T13:37:02.442Z,0.57
2023-04-16T13:39:29.056Z,1.63
2023-04-16T13:41:55.955Z,0.52
2023-04-16T13:44:22.660Z,2.65
2023-04-16T13:46:50.208Z,0.75
2023-04-16T13:49:16.840Z,0.82
2023-04-16T13:51:44.747Z,1.88
2023-04-16T13:54:11.978Z,0.75
2023-04-16T13:56:39.574Z,0.50
2023-04-16T13:59:06.513Z,0.60
2023-04-16T14:01:33.194Z,1.05
2023-04-16T14:04:06.463Z,0.93
2023-04-16T14:06:35.304Z,1.10
2023-04-16T14:09:02.372Z,0.95
2023-04-16T14:11:29.198Z,0.70
2023-04-16T14:13:56.000Z,1.30
2023-04-16T14:16:23.279Z,2.38
2023-04-16T14:18:52.207Z,1.40
2023-04-16T14:21:19.143Z,1.00
2023-04-16T14:23:45.777Z,1.20
2023-04-16T14:26:13.179Z,1.02
2023-04-16T14:28:40.883Z,1.23
2023-04-16T14:31:07.492Z,0.50
2023-04-16T14:33:34.727Z,1.00
2023-04-16T14:36:03.103Z,1.23
2023-04-16T14:38:31.187Z,0.60
2023-04-16T14:40:58.111Z,1.00
2023-04-16T14:43:24.742Z,0.82
2023-04-16T14:45:52.878Z,1.25
2023-04-16T14:48:20.019Z,2.42
2023-04-16T14:50:46.684Z,0.60
2023-04-16T14:53:13.724Z,1.20
2023-04-16T14:55:40.632Z,0.60
2023-04-16T14:58:07.433Z,0.60
2023-04-16T15:00:37.005Z,0.73
2023-04-16T15:03:04.317Z,1.00
2023-04-16T15:05:32.243Z,0.70
2023-04-16T15:07:58.865Z,0.55
2023-04-16T15:10:27.068Z,2.60
2023-04-16T15:12:53.887Z,2.08
2023-04-16T15:15:21.367Z,1.48
2023-04-16T15:17:48.270Z,2.03
2023-04-16T15:20:15.283Z,1.38
2023-04-16T15:22:43.435Z,0.90
2023-04-16T15:25:10.627Z,0.60
2023-04-16T15:27:37.792Z,0.68
2023-04-16T15:30:07.071Z,1.92
2023-04-16T15:32:34.964Z,0.70
2023-04-16T15:35:04.212Z,0.88
2023-04-16T15:37:31.462Z,0.70
2023-04-16T15:39:59.030Z,1.27
2023-04-16T15:42:25.989Z,0.77
2023-04-16T15:44:52.629Z,0.93
2023-04-16T15:47:19.250Z,0.93
2023-04-16T15:49:45.873Z,1.05
2023-04-16T15:52:13.103Z,1.38
2023-04-16T15:54:41.735Z,0.95
2023-04-16T15:57:09.256Z,1.77
2023-04-16T15:59:35.919Z,1.58
2023-04-16T16:02:02.766Z,1.20
2023-04-16T16:04:29.764Z,1.42
2023-04-16T16:06:56.642Z,1.55
2023-04-16T16:09:26.636Z,1.40
2023-04-16T16:11:54.778Z,1.48
2023-04-16T16:14:22.908Z,1.63
2023-04-16T16:16:49.777Z,2.05
2023-04-16T16:19:18.530Z,1.42
2023-04-16T16:21:45.390Z,1.33
2023-04-16T16:24:12.142Z,2.28
2023-04-16T16:26:39.506Z,1.83
2023-04-16T16:29:07.643Z,1.55
2023-04-16T16:31:34.366Z,1.50
2023-04-16T16:34:01.163Z,1.92
2023-04-16T16:36:28.377Z,2.13
2023-04-16T16:38:55.611Z,1.90
2023-04-16T16:41:22.500Z,2.28
2023-04-16T16:43:50.236Z,1.38
2023-04-16T16:46:16.893Z,1.38
2023-04-16T16:48:43.487Z,1.98
2023-04-16T16:51:11.041Z,1.77
2023-04-16T16:53:38.527Z,1.92
2023-04-16T16:56:05.721Z,2.97
2023-04-16T16:58:32.294Z,2.28
2023-04-16T17:00:59.105Z,2.13
2023-04-16T17:03:26.152Z,1.85
2023-04-16T17:05:52.787Z,2.33
2023-04-16T17:08:19.438Z,1.60
2023-04-16T17:10:46.073Z,2.20
2023-04-16T17:13:13.694Z,2.42
2023-04-16T17:15:40.580Z,1.38
2023-04-16T17:18:07.213Z,1.60
2023-04-16T17:20:33.905Z,1.85
2023-04-16T17:23:00.704Z,2.22
2023-04-16T17:25:27.315Z,2.30
2023-04-16T17:27:53.899Z,2.35
2023-04-16T17:30:21.265Z,3.33
2023-04-16T17:32:47.835Z,3.53
2023-04-16T17:35:14.579Z,3.55
2023-04-16T17:37:41.172Z,2.78
2023-04-16T17:40:08.304Z,3.75
2023-04-16T17:42:35.734Z,8.60
2023-04-16T17:45:03.306Z,6.05
2023-04-16T17:47:29.904Z,6.53
2023-04-16T17:49:56.590Z,9.45
2023-04-16T17:52:23.305Z,8.90
2023-04-16T17:54:49.939Z,10.82
2023-04-16T17:57:16.868Z,14.65
2023-04-16T17:59:43.517Z,13.10
2023-04-16T18:02:10.286Z,17.13
2023-04-16T18:04:37.073Z,27.83
2023-04-16T18:07:03.900Z,31.85
2023-04-16T18:09:31.330Z,40.42
2023-04-16T18:11:57.887Z,39.10
2023-04-16T18:14:25.094Z,18.83
2023-04-16T18:16:51.653Z,19.33
2023-04-16T18:19:18.334Z,30.15
2023-04-16T18:21:45.103Z,37.35
2023-04-16T18:24:12.109Z,29.80
2023-04-16T18:26:40.977Z,29.63
2023-04-16T18:29:07.984Z,27.48
2023-04-16T18:31:34.735Z,22.83
2023-04-16T18:34:01.435Z,19.65
2023-04-16T18:36:28.132Z,18.77
2023-04-16T18:39:02.258Z,19.88
2023-04-16T18:41:31.296Z,15.63
2023-04-16T18:43:57.926Z,12.93
2023-04-16T18:46:25.607Z,14.43
2023-04-16T18:48:52.359Z,22.27
2023-04-16T18:51:19.108Z,21.73
2023-04-16T18:53:45.922Z,20.45
2023-04-16T18:56:12.818Z,25.05
2023-04-16T18:58:39.534Z,19.98
2023-04-16T19:01:11.176Z,17.70
2023-04-16T19:03:38.689Z,15.45
2023-04-16T19:06:06.577Z,15.43
2023-04-16T19:08:33.244Z,14.93
2023-04-16T19:11:00.082Z,15.27
2023-04-16T19:13:26.782Z,14.73
2023-04-16T19:16:00.929Z,11.90
2023-04-16T19:18:28.589Z,10.23
2023-04-16T19:21:01.963Z,9.82
2023-04-16T19:23:29.044Z,10.90
2023-04-16T19:25:56.781Z,11.20
2023-04-16T19:28:24.424Z,8.43
2023-04-16T19:30:51.693Z,8.13
2023-04-16T19:33:19.009Z,8.20
2023-04-16T19:35:46.720Z,7.13
2023-04-16T19:38:13.438Z,8.45
2023-04-16T19:40:41.024Z,7.97
2023-04-16T19:43:07.888Z,6.10
2023-04-16T19:45:35.147Z,7.50
2023-04-16T19:48:02.241Z,5.35
2023-04-16T19:50:28.941Z,4.88
2023-04-16T19:52:55.601Z,5.93
2023-04-16T19:55:23.117Z,7.85
2023-04-16T19:57:49.981Z,9.25
2023-04-16T20:00:17.104Z,5.70
2023-04-16T20:02:43.949Z,5.60
2023-04-16T20:05:10.656Z,4.72
2023-04-16T20:07:37.807Z,3.25
2023-04-16T20:10:04.708Z,2.30
2023-04-16T20:12:31.299Z,3.25
2023-04-16T20:14:57.906Z,1.83
2023-04-16T20:17:24.549Z,2.00
2023-04-16T20:19:51.368Z,2.00
2023-04-16T20:22:18.804Z,2.17
2023-04-16T20:24:48.014Z,2.08
2023-04-16T20:27:15.342Z,1.65
2023-04-16T20:29:42.369Z,1.70
2023-04-16T20:32:09.023Z,1.33
2023-04-16T20:34:36.691Z,1.27
2023-04-16T20:37:04.023Z,2.63
2023-04-16T20:39:34.041Z,2.03
2023-04-16T20:42:00.784Z,2.20
2023-04-16T20:44:33.074Z,1.58
2023-04-16T20:47:00.004Z,1.20
2023-04-16T20:49:26.758Z,1.30
2023-04-16T20:51:53.379Z,1.48
2023-04-16T20:54:20.009Z,2.08
2023-04-16T20:56:46.807Z,1.23
2023-04-16T20:59:13.395Z,1.88
2023-04-16T21:01:40.166Z,1.25
2023-04-16T21:04:07.142Z,0.90
2023-04-16T21:06:38.389Z,2.58
2023-04-16T21:09:06.053Z,0.90
2023-04-16T21:11:34.682Z,1.20
2023-04-16T21:14:05.086Z,0.90
2023-04-16T21:16:32.366Z,1.00
2023-04-16T21:18:59.063Z,1.05
2023-04-16T21:21:27.385Z,1.33
2023-04-16T21:23:54.503Z,2.13
2023-04-16T21:26:21.326Z,0.88
2023-04-16T21:28:48.169Z,1.00
2023-04-16T21:31:15.017Z,0.90
2023-04-16T21:33:41.623Z,0.98
2023-04-16T21:36:08.360Z,0.75
2023-04-16T21:38:34.954Z,0.70
2023-04-16T21:41:02.076Z,1.30
2023-04-16T21:43:32.256Z,0.90
2023-04-16T21:45:59.693Z,1.85
2023-04-16T21:48:27.047Z,0.82
2023-04-16T21:51:06.188Z,0.90
2023-04-16T21:53:33.455Z,0.80
2023-04-16T21:56:00.283Z,1.92
2023-04-16T21:58:26.957Z,2.33
2023-04-16T22:00:54.118Z,1.52
2023-04-16T22:03:30.283Z,0.63
2023-04-16T22:06:00.882Z,1.33
2023-04-16T22:08:31.069Z,0.77
2023-04-16T22:11:02.261Z,1.30
2023-04-16T22:13:32.161Z,0.80
2023-04-16T22:16:02.570Z,1.48
2023-04-16T22:18:32.860Z,0.63
2023-04-16T22:20:59.920Z,1.52
2023-04-16T22:23:26.578Z,1.55
2023-04-16T22:25:54.731Z,0.75
2023-04-16T22:28:21.698Z,1.05
2023-04-16T22:30:48.450Z,0.95
2023-04-16T22:33:15.193Z,3.30
2023-04-16T22:35:42.080Z,1.00
2023-04-16T22:38:08.753Z,0.82
2023-04-16T22:40:35.355Z,1.05
2023-04-16T22:43:01.934Z,1.23
2023-04-16T22:45:28.576Z,1.00
2023-04-16T22:47:55.278Z,0.75
2023-04-16T22:50:23.153Z,0.70
2023-04-16T22:52:49.845Z,1.13
2023-04-16T22:55:16.772Z,0.80
2023-04-16T22:57:43.378Z,0.80
2023-04-16T23:00:15.866Z,0.57
2023-04-16T23:02:43.080Z,0.80
2023-04-16T23:05:10.847Z,0.93
2023-04-16T23:07:37.492Z,0.70
2023-04-16T23:10:04.382Z,1.23
2023-04-16T23:12:31.010Z,0.85
2023-04-16T23:14:58.348Z,0.75
2023-04-16T23:17:25.056Z,0.88
2023-04-16T23:19:51.703Z,1.92
2023-04-16T23:22:18.400Z,0.70
2023-04-16T23:24:45.015Z,0.90
2023-04-16T23:27:11.620Z,1.35
2023-04-16T23:29:38.197Z,0.60
2023-04-16T23:32:06.001Z,0.90
2023-04-16T23:34:32.594Z,0.85
2023-04-16T23:36:59.178Z,0.65
2023-04-16T23:39:26.195Z,1.13
2023-04-16T23:41:52.782Z,1.17
2023-04-16T23:44:19.396Z,1.00
2023-04-16T23:46:46.167Z,0.68
2023-04-16T23:49:12.952Z,1.00
2023-04-16T23:51:39.774Z,0.80
2023-04-16T23:54:06.529Z,1.08
2023-04-16T23:56:33.123Z,0.63
2023-04-16T23:58:59.778Z,0.70
